Time;durP1;ratioP1;P1;durP2;ratioP2;P2;SDS_P1;SDS_P2;PMS_P1;PMS_P2;Temp;Humidity;BMP_temperature;BMP_pressure;BME280_temperature;BME280_humidity;BME280_pressure;Samples;Min_cycle;Max_cycle;Signal;HPM_P1;HPM_P2
2022/10/27 00:00:43;;;;;;;0.52;0.40;;;;;;;19.48;100.00;99607.09;7392993;19;20023;-88
2022/10/27 00:03:10;;;;;;;0.25;0.25;;;;;;;18.96;100.00;99615.47;7393676;19;20024;-88
2022/10/27 00:05:36;;;;;;;0.75;0.00;;;;;;;19.31;100.00;99617.91;7391995;19;20021;-88
2022/10/27 00:08:03;;;;;;;0.55;0.38;;;;;;;19.40;100.00;99614.69;7394887;19;20014;-89
2022/10/27 00:10:29;;;;;;;0.13;0.10;;;;;;;19.49;100.00;99617.06;7392978;19;20093;-89
2022/10/27 00:12:55;;;;;;;1.98;0.73;;;;;;;19.31;100.00;99623.56;7392201;19;20516;-88
2022/10/27 00:15:21;;;;;;;7.78;0.50;;;;;;;19.15;100.00;99626.69;7392994;19;20014;-89
2022/10/27 00:17:47;;;;;;;0.98;0.85;;;;;;;19.08;100.00;99632.97;7392470;19;20019;-89
2022/10/27 00:20:14;;;;;;;3.85;1.05;;;;;;;19.12;100.00;99628.53;7392749;19;20026;-89
2022/10/27 00:22:40;;;;;;;0.15;0.10;;;;;;;18.95;100.00;99627.31;7396447;19;20018;-89
2022/10/27 00:25:07;;;;;;;0.60;0.57;;;;;;;19.12;100.00;99625.72;7401908;19;20019;-88
2022/10/27 00:27:33;;;;;;;2.08;0.38;;;;;;;18.83;100.00;99623.91;7396345;19;20018;-89
2022/10/27 00:29:59;;;;;;;4.38;0.43;;;;;;;19.04;100.00;99616.34;7390184;19;20010;-89
2022/10/27 00:32:25;;;;;;;2.40;1.35;;;;;;;19.17;100.00;99619.19;7388808;19;20040;-88
2022/10/27 00:34:51;;;;;;;0.65;0.10;;;;;;;19.16;100.00;99611.28;7388480;19;20019;-89
2022/10/27 00:37:17;;;;;;;1.00;0.63;;;;;;;18.91;100.00;99613.50;7392551;19;20029;-88
2022/10/27 00:39:43;;;;;;;1.85;0.85;;;;;;;19.08;100.00;99616.78;7391176;19;20014;-88
2022/10/27 00:42:13;;;;;;;3.05;0.57;;;;;;;19.01;100.00;99600.50;7389694;19;20349;-88
2022/10/27 00:44:46;;;;;;;0.95;0.32;;;;;;;18.82;100.00;99611.84;7390629;19;20022;-88
2022/10/27 00:47:17;;;;;;;1.08;0.52;;;;;;;18.75;100.00;99611.72;7391581;19;20485;-89
2022/10/27 00:49:59;;;;;;;0.40;0.40;;;;;;;18.40;100.00;99603.53;7390231;19;20010;-88
2022/10/27 00:52:33;;;;;;;0.43;0.43;;;;;;;18.50;100.00;99607.50;7390900;19;20014;-89
2022/10/27 00:55:13;;;;;;;5.72;1.05;;;;;;;18.75;100.00;99598.34;7389291;19;20484;-88
2022/10/27 00:57:42;;;;;;;0.20;0.20;;;;;;;18.44;100.00;99599.13;7390493;19;20023;-88
2022/10/27 01:00:09;;;;;;;0.32;0.20;;;;;;;18.50;100.00;99599.03;7389097;19;20023;-88
2022/10/27 01:02:36;;;;;;;3.10;0.50;;;;;;;18.67;100.00;99599.53;7389929;19;20037;-89
2022/10/27 01:05:23;;;;;;;0.77;0.50;;;;;;;18.97;100.00;99585.97;7391227;19;20022;-89
2022/10/27 01:07:53;;;;;;;0.70;0.25;;;;;;;18.92;100.00;99579.09;7390862;19;20485;-88
2022/10/27 01:10:20;;;;;;;0.10;0.05;;;;;;;19.14;100.00;99589.25;7387560;19;20022;-88
2022/10/27 01:12:46;;;;;;;5.45;0.50;;;;;;;19.23;100.00;99590.88;7388992;19;20025;-89
2022/10/27 01:15:13;;;;;;;0.10;0.00;;;;;;;18.80;100.00;99594.69;7387057;19;20011;-88
2022/10/27 01:17:51;;;;;;;1.52;0.77;;;;;;;18.83;100.00;99584.41;7392782;19;20361;-89
2022/10/27 01:20:39;;;;;;;0.43;0.28;;;;;;;19.05;100.00;99584.00;7389663;19;20026;-89
2022/10/27 01:23:08;;;;;;;5.93;1.88;;;;;;;19.37;100.00;99593.19;7388382;19;20042;-89
2022/10/27 01:25:46;;;;;;;8.57;0.98;;;;;;;19.74;100.00;99582.94;7390285;19;20369;-89
2022/10/27 01:29:03;;;;;;;3.70;0.40;;;;;;;20.05;100.00;99590.50;7391887;19;20022;-89
2022/10/27 01:31:34;;;;;;;0.00;0.00;;;;;;;20.11;100.00;99582.66;7389106;19;20019;-89
2022/10/27 01:34:09;;;;;;;8.82;0.45;;;;;;;19.75;100.00;99581.66;7390078;19;20039;-89
2022/10/27 01:37:02;;;;;;;1.48;0.30;;;;;;;19.88;100.00;99587.28;7389764;19;20007;-89
2022/10/27 01:39:43;;;;;;;0.10;0.00;;;;;;;19.76;100.00;99583.91;7388869;19;20391;-89
2022/10/27 01:42:18;;;;;;;0.40;0.40;;;;;;;19.54;100.00;99587.97;7389804;19;20010;-89
2022/10/27 01:44:49;;;;;;;3.22;0.43;;;;;;;19.66;100.00;99583.59;7389479;19;20025;-88
2022/10/27 01:47:15;;;;;;;;;;;;;;;19.85;100.00;99586.31;7391731;19;20022;-89
2022/10/27 01:49:42;;;;;;;0.45;0.10;;;;;;;19.74;100.00;99580.88;7387480;19;19923;-89
2022/10/27 01:52:45;;;;;;;1.30;0.20;;;;;;;19.92;100.00;99584.88;7388100;19;20462;-89
2022/10/27 01:55:21;;;;;;;0.70;0.50;;;;;;;20.06;100.00;99592.78;7387364;19;20015;-89
2022/10/27 01:58:11;;;;;;;0.35;0.25;;;;;;;20.53;100.00;99592.75;7391225;19;20026;-89
2022/10/27 02:01:17;;;;;;;4.18;0.60;;;;;;;20.67;100.00;99588.56;7388315;19;20033;-89
2022/10/27 02:04:03;;;;;;;1.65;0.75;;;;;;;20.58;100.00;99594.69;7387217;19;20461;-89
2022/10/27 02:06:38;;;;;;;0.10;0.10;;;;;;;20.53;100.00;99589.91;7387571;19;20029;-89
2022/10/27 02:09:18;;;;;;;0.85;0.40;;;;;;;20.30;100.00;99577.63;7385370;19;20317;-89
2022/10/27 02:11:47;;;;;;;14.35;0.65;;;;;;;20.27;100.00;99581.56;7387256;19;20018;-88
2022/10/27 02:14:14;;;;;;;0.10;0.00;;;;;;;19.82;100.00;99580.97;7387873;19;20094;-88
2022/10/27 02:16:45;;;;;;;0.28;0.28;;;;;;;19.57;100.00;99578.41;7388202;19;20078;-88
2022/10/27 02:19:26;;;;;;;1.88;1.27;;;;;;;20.17;100.00;99578.41;7387958;19;20054;-89
2022/10/27 02:21:56;;;;;;;0.28;0.20;;;;;;;20.06;100.00;99578.63;7388719;19;20051;-88
2022/10/27 02:24:23;;;;;;;0.52;0.38;;;;;;;20.38;100.00;99569.97;7385769;19;20029;-88
2022/10/27 02:26:53;;;;;;;12.05;0.52;;;;;;;20.32;100.00;99569.34;7389512;19;20014;-88
2022/10/27 02:29:28;;;;;;;7.82;1.25;;;;;;;20.36;100.00;99561.25;7389896;19;20026;-89
2022/10/27 02:31:57;;;;;;;0.10;0.10;;;;;;;20.16;100.00;99559.16;7386884;19;20022;-88
2022/10/27 02:34:26;;;;;;;5.50;0.68;;;;;;;20.25;100.00;99561.53;7386835;19;20021;-88
2022/10/27 02:36:52;;;;;;;0.80;0.45;;;;;;;20.57;100.00;99559.22;7387800;19;20095;-89
2022/10/27 02:39:18;;;;;;;5.32;0.80;;;;;;;20.92;100.00;99550.06;7387348;19;20042;-88
2022/10/27 02:41:44;;;;;;;0.85;0.45;;;;;;;20.71;100.00;99549.34;7387416;19;20061;-89
2022/10/27 02:44:10;;;;;;;1.65;0.50;;;;;;;20.52;100.00;99545.19;7384528;19;20030;-87
2022/10/27 02:46:36;;;;;;;0.10;0.10;;;;;;;20.64;100.00;99552.13;7385557;19;20026;-89
2022/10/27 02:49:03;;;;;;;19.98;0.85;;;;;;;21.21;100.00;99548.06;7384721;19;20014;-89
2022/10/27 02:51:29;;;;;;;9.65;1.17;;;;;;;20.89;100.00;99550.44;7385080;19;20014;-89
2022/10/27 02:53:55;;;;;;;0.65;0.57;;;;;;;20.72;100.00;99547.28;7386975;19;20025;-89
2022/10/27 02:56:21;;;;;;;0.75;0.32;;;;;;;20.79;100.00;99547.31;7384976;19;20026;-88
2022/10/27 02:58:47;;;;;;;1.77;0.32;;;;;;;21.05;100.00;99543.63;7391123;19;20014;-89
2022/10/27 03:01:13;;;;;;;0.50;0.43;;;;;;;21.14;100.00;99541.03;7387551;19;20018;-89
2022/10/27 03:03:40;;;;;;;0.30;0.20;;;;;;;21.02;100.00;99553.19;7386345;19;20023;-89
2022/10/27 03:06:06;;;;;;;0.40;0.30;;;;;;;20.98;100.00;99547.88;7384874;19;20022;-89
2022/10/27 03:08:32;;;;;;;6.82;1.45;;;;;;;20.98;100.00;99550.72;7384104;19;20007;-89
2022/10/27 03:10:58;;;;;;;1.75;0.17;;;;;;;21.20;100.00;99551.44;7384077;19;20014;-89
2022/10/27 03:13:24;;;;;;;1.55;0.40;;;;;;;21.01;100.00;99552.41;7385324;19;20050;-89
2022/10/27 03:15:50;;;;;;;3.00;1.27;;;;;;;21.17;100.00;99552.53;7384044;19;20018;-88
2022/10/27 03:18:17;;;;;;;4.05;0.90;;;;;;;21.28;100.00;99552.25;7391327;19;20027;-89
2022/10/27 03:20:45;;;;;;;5.57;0.98;;;;;;;21.23;100.00;99545.41;7386960;19;20026;-88
2022/10/27 03:23:12;;;;;;;0.20;0.10;;;;;;;21.24;100.00;99546.19;7387397;19;20095;-89
2022/10/27 03:25:43;;;;;;;1.35;0.30;;;;;;;20.97;100.00;99546.34;7386188;19;20025;-89
2022/10/27 03:28:12;;;;;;;1.65;0.20;;;;;;;21.30;100.00;99552.44;7387657;19;20029;-89
2022/10/27 03:30:39;;;;;;;0.73;0.40;;;;;;;21.09;100.00;99546.84;7385638;19;20078;-89
2022/10/27 03:33:05;;;;;;;7.38;1.00;;;;;;;21.08;100.00;99546.09;7385527;19;20082;-89
2022/10/27 03:35:31;;;;;;;3.28;1.05;;;;;;;21.05;100.00;99537.94;7388223;19;20018;-89
2022/10/27 03:38:00;;;;;;;2.45;0.65;;;;;;;21.24;100.00;99540.50;7390183;19;20018;-90
2022/10/27 03:40:28;;;;;;;6.38;0.77;;;;;;;21.13;100.00;99522.53;7386831;19;20022;-91
2022/10/27 03:42:57;;;;;;;2.60;1.17;;;;;;;21.20;100.00;99523.13;7385818;19;20097;-91
2022/10/27 03:45:25;;;;;;;0.52;0.47;;;;;;;21.13;100.00;99528.19;7385457;19;20025;-91
2022/10/27 03:48:03;;;;;;;1.95;0.70;;;;;;;21.23;100.00;99522.00;7385906;19;20487;-91
2022/10/27 03:50:29;;;;;;;9.73;0.63;;;;;;;21.13;100.00;99519.69;7384411;19;20015;-91
2022/10/27 03:52:55;;;;;;;0.63;0.35;;;;;;;20.95;100.00;99515.00;7388447;19;20026;-91
2022/10/27 03:55:22;;;;;;;0.70;0.57;;;;;;;21.16;100.00;99512.13;7389794;19;20086;-91
2022/10/27 03:57:49;;;;;;;0.17;0.17;;;;;;;20.97;100.00;99503.09;7394622;19;20022;-91
2022/10/27 04:00:16;;;;;;;2.15;0.47;;;;;;;20.95;100.00;99502.91;7393743;19;20035;-91
2022/10/27 04:02:42;;;;;;;1.00;0.43;;;;;;;21.09;100.00;99495.88;7392237;19;20015;-91
2022/10/27 04:05:08;;;;;;;3.30;0.63;;;;;;;21.36;100.00;99499.22;7392848;19;20006;-90
2022/10/27 04:07:34;;;;;;;7.43;0.22;;;;;;;21.34;100.00;99487.69;7393744;19;20394;-91
2022/10/27 04:10:01;;;;;;;5.68;0.52;;;;;;;21.64;100.00;99487.81;7391874;19;20029;-91
2022/10/27 04:12:27;;;;;;;9.18;0.70;;;;;;;21.80;100.00;99483.72;7391241;19;20018;-91
2022/10/27 04:14:53;;;;;;;6.88;0.68;;;;;;;21.62;100.00;99485.56;7389269;19;20015;-90
2022/10/27 04:17:19;;;;;;;7.45;1.33;;;;;;;21.47;100.00;99485.50;7393148;19;20023;-91
2022/10/27 04:19:45;;;;;;;6.38;1.95;;;;;;;21.63;100.00;99486.31;7391982;19;20019;-91
2022/10/27 04:22:11;;;;;;;11.55;1.15;;;;;;;21.66;100.00;99485.94;7393039;19;20022;-91
2022/10/27 04:24:39;;;;;;;1.10;0.52;;;;;;;21.79;100.00;99494.31;7394524;19;20018;-89
2022/10/27 04:27:08;;;;;;;6.43;0.95;;;;;;;21.83;100.00;99482.63;7393049;19;20029;-89
2022/10/27 04:29:34;;;;;;;1.35;0.47;;;;;;;21.80;100.00;99483.72;7389384;19;20022;-91
2022/10/27 04:32:00;;;;;;;0.15;0.15;;;;;;;21.64;100.00;99488.59;7388881;19;20034;-91
2022/10/27 04:34:26;;;;;;;4.47;0.65;;;;;;;21.53;100.00;99488.91;7389931;19;20014;-92
2022/10/27 04:36:54;;;;;;;3.13;0.22;;;;;;;21.50;100.00;99483.63;7392188;19;20466;-91
2022/10/27 04:39:20;;;;;;;1.75;0.60;;;;;;;21.44;100.00;99494.38;7393709;19;20019;-93
2022/10/27 04:41:47;;;;;;;2.88;0.38;;;;;;;21.39;100.00;99492.44;7391825;19;20454;-95
2022/10/27 04:44:13;;;;;;;9.05;0.85;;;;;;;21.57;100.00;99486.47;7397128;19;20015;-96
2022/10/27 04:46:39;;;;;;;2.05;0.40;;;;;;;21.70;100.00;99482.75;7409645;19;20518;-58
2022/10/27 04:49:05;;;;;;;0.70;0.70;;;;;;;21.75;100.00;99485.41;7391399;19;20030;-58
2022/10/27 04:51:31;;;;;;;6.68;0.30;;;;;;;21.39;100.00;99495.28;7390795;19;20021;-58
2022/10/27 04:53:57;;;;;;;4.57;1.17;;;;;;;20.67;100.00;99494.41;7391559;19;20074;-58
2022/10/27 04:56:23;;;;;;;4.85;1.30;;;;;;;21.24;100.00;99489.53;7391182;19;20010;-59
2022/10/27 04:58:50;;;;;;;1.60;0.70;;;;;;;20.83;100.00;99485.50;7394978;19;20066;-58
2022/10/27 05:01:16;;;;;;;1.38;0.47;;;;;;;20.87;100.00;99483.06;7391136;19;20015;-59
2022/10/27 05:03:42;;;;;;;0.80;0.45;;;;;;;20.91;100.00;99480.63;7389014;19;20015;-59
2022/10/27 05:06:08;;;;;;;1.25;0.20;;;;;;;21.05;100.00;99473.56;7391406;19;20024;-59
2022/10/27 05:08:34;;;;;;;1.17;0.75;;;;;;;20.96;100.00;99476.88;7392358;19;20021;-59
2022/10/27 05:11:00;;;;;;;0.28;0.20;;;;;;;20.90;100.00;99467.78;7392950;19;20015;-59
2022/10/27 05:13:26;;;;;;;0.95;0.43;;;;;;;21.40;100.00;99465.63;7391710;19;20035;-59
2022/10/27 05:15:58;;;;;;;5.05;0.63;;;;;;;21.65;100.00;99458.94;7392204;19;20018;-59
2022/10/27 05:18:24;;;;;;;2.83;0.82;;;;;;;21.57;100.00;99454.56;7397034;19;20019;-59
2022/10/27 05:20:50;;;;;;;0.20;0.10;;;;;;;21.60;100.00;99459.09;7392894;19;20038;-60
2022/10/27 05:23:16;;;;;;;1.65;0.50;;;;;;;21.63;100.00;99457.97;7393025;19;20036;-60
2022/10/27 05:25:43;;;;;;;0.30;0.15;;;;;;;21.67;100.00;99441.34;7392592;19;20010;-59
2022/10/27 05:28:13;;;;;;;0.32;0.32;;;;;;;21.73;100.00;99451.19;7393053;19;20638;-60
2022/10/27 05:30:39;;;;;;;4.15;0.73;;;;;;;21.99;100.00;99452.22;7391696;19;20332;-59
2022/10/27 05:33:05;;;;;;;0.73;0.40;;;;;;;22.15;100.00;99446.03;7390774;19;20018;-59
2022/10/27 05:35:31;;;;;;;1.67;0.77;;;;;;;21.66;100.00;99440.59;7392159;19;20010;-59
2022/10/27 05:37:58;;;;;;;1.00;0.30;;;;;;;21.31;100.00;99444.22;7395467;19;20016;-59
2022/10/27 05:40:24;;;;;;;1.75;0.38;;;;;;;21.57;100.00;99438.28;7391603;19;20018;-59
2022/10/27 05:42:52;;;;;;;1.50;0.47;;;;;;;21.77;100.00;99439.47;7391893;19;20453;-60
2022/10/27 05:45:19;;;;;;;0.77;0.45;;;;;;;21.52;100.00;99435.63;7390881;19;20018;-60
2022/10/27 05:47:45;;;;;;;0.20;0.10;;;;;;;21.64;100.00;99436.81;7393982;19;20378;-60
2022/10/27 05:50:12;;;;;;;0.82;0.50;;;;;;;21.44;100.00;99440.53;7391310;19;20010;-59
2022/10/27 05:52:38;;;;;;;0.68;0.30;;;;;;;21.58;100.00;99433.38;7390779;19;20021;-60
2022/10/27 05:55:04;;;;;;;2.60;0.43;;;;;;;21.47;100.00;99434.50;7391669;19;20014;-60
2022/10/27 05:57:31;;;;;;;0.73;0.35;;;;;;;21.50;100.00;99432.63;7393975;19;20356;-60
2022/10/27 05:59:57;;;;;;;1.23;0.85;;;;;;;21.69;100.00;99436.66;7391056;19;20035;-59
2022/10/27 06:02:23;;;;;;;1.98;0.63;;;;;;;21.78;100.00;99432.50;7390222;19;20495;-59
2022/10/27 06:04:49;;;;;;;7.03;0.57;;;;;;;21.95;100.00;99432.00;7390070;19;20022;-59
2022/10/27 06:07:15;;;;;;;1.15;0.10;;;;;;;22.04;100.00;99432.22;7392506;19;20010;-59
2022/10/27 06:09:41;;;;;;;0.52;0.43;;;;;;;21.98;100.00;99431.63;7390641;19;20007;-59
2022/10/27 06:12:07;;;;;;;1.27;0.60;;;;;;;22.17;100.00;99429.19;7390989;19;20440;-59
2022/10/27 06:14:33;;;;;;;7.10;0.88;;;;;;;22.11;100.00;99431.44;7388111;19;20024;-60
2022/10/27 06:16:59;;;;;;;4.05;0.50;;;;;;;22.29;100.00;99438.84;7391987;19;20006;-59
2022/10/27 06:19:25;;;;;;;0.82;0.65;;;;;;;22.25;100.00;99444.13;7391014;19;20337;-59
2022/10/27 06:21:52;;;;;;;0.22;0.13;;;;;;;22.31;100.00;99447.53;7389798;19;20014;-59
2022/10/27 06:24:18;;;;;;;0.68;0.30;;;;;;;22.41;100.00;99442.81;7391086;19;20010;-59
2022/10/27 06:26:44;;;;;;;2.83;0.85;;;;;;;22.50;100.00;99436.56;7392128;19;20011;-60
2022/10/27 06:29:10;;;;;;;0.57;0.43;;;;;;;22.44;100.00;99436.00;7390218;19;20014;-59
2022/10/27 06:31:38;;;;;;;6.90;0.50;;;;;;;22.26;100.00;99433.56;7390907;19;20014;-60
2022/10/27 06:34:04;;;;;;;0.20;0.20;;;;;;;21.95;100.00;99432.75;7388077;19;20026;-60
2022/10/27 06:36:30;;;;;;;3.05;0.57;;;;;;;22.05;100.00;99436.53;7391165;19;20015;-59
2022/10/27 06:38:56;;;;;;;0.90;0.40;;;;;;;22.05;100.00;99425.19;7390047;19;20012;-60
2022/10/27 06:41:22;;;;;;;0.70;0.70;;;;;;;22.33;100.00;99427.84;7389560;19;20066;-59
2022/10/27 06:43:49;;;;;;;0.30;0.10;;;;;;;22.06;100.00;99423.88;7389793;19;20030;-59
2022/10/27 06:46:15;;;;;;;2.13;0.93;;;;;;;22.08;100.00;99417.63;7389901;19;20455;-59
2022/10/27 06:48:41;;;;;;;1.75;0.40;;;;;;;22.40;100.00;99421.44;7389646;19;20011;-59
2022/10/27 06:51:07;;;;;;;2.80;0.52;;;;;;;22.48;100.00;99413.66;7389113;19;20411;-59
2022/10/27 06:53:33;;;;;;;2.63;0.50;;;;;;;22.50;100.00;99413.84;7390170;19;20017;-59
2022/10/27 06:55:59;;;;;;;2.38;0.60;;;;;;;23.06;100.00;99412.66;7389921;19;20014;-59
2022/10/27 06:58:26;;;;;;;0.30;0.08;;;;;;;22.99;100.00;99406.97;7392917;19;20019;-59
2022/10/27 07:00:52;;;;;;;1.38;0.22;;;;;;;22.89;100.00;99408.91;7388623;19;20030;-59
2022/10/27 07:03:18;;;;;;;1.75;0.68;;;;;;;22.80;100.00;99406.66;7387577;19;20411;-59
2022/10/27 07:05:44;;;;;;;0.82;0.30;;;;;;;22.76;100.00;99411.97;7389429;19;20486;-59
2022/10/27 07:08:10;;;;;;;0.43;0.35;;;;;;;22.82;100.00;99409.69;7391823;19;20101;-59
2022/10/27 07:10:36;;;;;;;0.50;0.40;;;;;;;23.05;100.00;99405.44;7388978;19;20011;-59
2022/10/27 07:13:03;;;;;;;0.90;0.15;;;;;;;22.90;100.00;99405.50;7389489;19;20015;-59
2022/10/27 07:15:31;;;;;;;1.30;0.30;;;;;;;22.67;100.00;99410.47;7388739;19;20050;-59
2022/10/27 07:18:00;;;;;;;4.00;0.57;;;;;;;22.74;100.00;99403.28;7390571;19;20070;-59
2022/10/27 07:20:28;;;;;;;2.08;0.55;;;;;;;23.04;100.00;99403.19;7387368;19;20014;-60
2022/10/27 07:22:55;;;;;;;0.73;0.35;;;;;;;23.11;100.00;99399.53;7388776;19;20018;-58
2022/10/27 07:25:21;;;;;;;1.00;0.55;;;;;;;22.81;100.00;99394.72;7389822;19;20084;-58
2022/10/27 07:27:55;;;;;;;0.55;0.35;;;;;;;22.96;100.00;99391.06;7398412;19;20010;-59
2022/10/27 07:30:29;;;;;;;0.82;0.40;;;;;;;22.80;100.00;99386.78;7394570;19;20011;-59
2022/10/27 07:32:57;;;;;;;7.22;1.13;;;;;;;22.60;100.00;99386.44;7395719;19;20010;-59
2022/10/27 07:35:26;;;;;;;2.72;0.40;;;;;;;22.66;100.00;99380.56;7394712;19;20015;-59
2022/10/27 07:37:52;;;;;;;2.83;0.38;;;;;;;22.72;100.00;99381.09;7399097;19;20435;-60
2022/10/27 07:40:20;;;;;;;2.58;0.47;;;;;;;22.89;100.00;99380.50;7396286;19;20086;-60
2022/10/27 07:42:52;;;;;;;2.83;0.75;;;;;;;23.17;100.00;99377.38;7393910;19;20021;-59
2022/10/27 07:45:21;;;;;;;0.32;0.25;;;;;;;23.26;100.00;99376.75;7394983;19;20010;-60
2022/10/27 07:47:50;;;;;;;4.18;0.80;;;;;;;23.30;100.00;99371.44;7397685;19;20022;-60
2022/10/27 07:50:22;;;;;;;1.65;0.38;;;;;;;23.32;100.00;99372.38;7394828;19;20018;-60
2022/10/27 07:52:50;;;;;;;2.10;0.75;;;;;;;23.45;100.00;99368.56;7394782;19;20483;-60
2022/10/27 07:55:20;;;;;;;8.15;1.05;;;;;;;23.33;100.00;99376.00;7395036;19;20006;-60
2022/10/27 07:57:46;;;;;;;1.38;0.85;;;;;;;23.43;100.00;99381.84;7398434;19;20021;-59
2022/10/27 08:00:15;;;;;;;1.80;0.68;;;;;;;23.54;100.00;99376.44;7395040;19;20035;-60
2022/10/27 08:02:43;;;;;;;2.33;0.30;;;;;;;23.33;100.00;99378.84;7393394;19;20015;-59
2022/10/27 08:05:09;;;;;;;1.88;1.05;;;;;;;23.29;100.00;99367.09;7393458;19;20031;-59
2022/10/27 08:07:37;;;;;;;1.38;0.73;;;;;;;23.16;100.00;99364.50;7396397;19;20075;-60
2022/10/27 08:10:03;;;;;;;0.65;0.40;;;;;;;22.87;100.00;99366.13;7394565;19;20562;-60
2022/10/27 08:12:30;;;;;;;2.80;0.65;;;;;;;23.14;100.00;99372.84;7394808;19;20011;-59
2022/10/27 08:14:56;;;;;;;4.43;0.35;;;;;;;23.45;100.00;99362.13;7392357;19;20015;-60
2022/10/27 08:17:25;;;;;;;1.55;0.55;;;;;;;23.36;100.00;99363.50;7397134;19;20030;-60
2022/10/27 08:19:51;;;;;;;3.40;0.63;;;;;;;23.41;100.00;99364.59;7393589;19;20010;-59
2022/10/27 08:22:17;;;;;;;2.28;0.28;;;;;;;23.60;100.00;99351.41;7393389;19;20007;-59
2022/10/27 08:24:44;;;;;;;0.47;0.13;;;;;;;23.63;100.00;99360.88;7395162;19;20017;-60
2022/10/27 08:27:10;;;;;;;1.75;0.50;;;;;;;23.59;100.00;99355.56;7396363;19;20020;-60
2022/10/27 08:29:36;;;;;;;2.63;0.45;;;;;;;23.51;100.00;99354.88;7393493;19;20027;-59
2022/10/27 08:32:02;;;;;;;2.42;1.05;;;;;;;23.31;100.00;99347.38;7393255;19;20006;-59
2022/10/27 08:34:28;;;;;;;1.17;0.30;;;;;;;23.51;100.00;99363.41;7394636;19;20046;-60
2022/10/27 08:36:55;;;;;;;4.07;0.52;;;;;;;23.55;100.00;99358.06;7394380;19;20015;-59
2022/10/27 08:39:21;;;;;;;2.15;0.60;;;;;;;24.00;100.00;99349.22;7393512;19;20015;-59
2022/10/27 08:41:56;;;;;;;0.98;0.73;;;;;;;23.94;100.00;99345.09;7394897;19;20012;-59
2022/10/27 08:45:13;;;;;;;0.50;0.20;;;;;;;23.87;100.00;99346.66;7393039;19;20011;-59
2022/10/27 08:47:40;;;;;;;0.65;0.43;;;;;;;24.30;100.00;99348.22;7389578;19;20355;-59
2022/10/27 08:50:21;;;;;;;2.20;0.90;;;;;;;24.20;100.00;99344.53;7392592;19;20011;-59
2022/10/27 08:52:55;;;;;;;0.85;0.25;;;;;;;23.72;100.00;99341.09;7393033;19;20090;-59
2022/10/27 08:55:56;;;;;;;3.92;0.55;;;;;;;24.39;100.00;99333.34;7393249;19;20123;-59
2022/10/27 08:58:38;;;;;;;2.30;0.55;;;;;;;25.16;100.00;99326.22;7395404;19;20344;-59
2022/10/27 09:01:21;;;;;;;1.50;0.77;;;;;;;25.23;100.00;99336.75;7392522;19;20010;-59
2022/10/27 09:04:00;;;;;;;1.23;0.40;;;;;;;24.80;100.00;99329.69;7393079;19;20478;-59
2022/10/27 09:06:56;;;;;;;3.05;0.20;;;;;;;24.67;100.00;99338.56;7392671;19;20431;-59
2022/10/27 09:09:48;;;;;;;3.15;0.47;;;;;;;24.73;100.00;99346.84;7392696;19;20006;-59
2022/10/27 09:12:23;;;;;;;1.05;0.30;;;;;;;24.89;100.00;99338.91;7393306;19;20070;-59
2022/10/27 09:14:52;;;;;;;3.47;0.50;;;;;;;24.95;100.00;99339.41;7392139;19;20025;-58
2022/10/27 09:17:42;;;;;;;0.75;0.10;;;;;;;24.91;100.00;99334.13;7394117;19;20479;-58
2022/10/27 09:20:26;;;;;;;2.50;0.38;;;;;;;24.68;100.00;99330.75;7392146;19;20015;-58
2022/10/27 09:22:54;;;;;;;2.05;0.25;;;;;;;25.07;100.00;99326.91;7392709;19;20066;-58
2022/10/27 09:25:21;;;;;;;2.30;0.85;;;;;;;25.02;100.00;99336.47;7391400;19;20467;-58
2022/10/27 09:27:51;;;;;;;1.17;0.55;;;;;;;25.14;100.00;99328.91;7394627;19;20025;-57
2022/10/27 09:30:18;;;;;;;4.07;0.30;;;;;;;25.11;100.00;99327.22;7389754;19;20033;-58
2022/10/27 09:32:48;;;;;;;1.63;0.20;;;;;;;25.00;100.00;99327.75;7392002;19;20746;-58
2022/10/27 09:35:23;;;;;;;0.35;0.35;;;;;;;24.77;100.00;99328.03;7392728;19;20633;-57
2022/10/27 09:37:50;;;;;;;0.30;0.20;;;;;;;24.78;100.00;99331.63;7393566;19;20014;-57
2022/10/27 09:40:19;;;;;;;0.10;0.10;;;;;;;25.01;100.00;99329.28;7391032;19;20017;-57
2022/10/27 09:42:49;;;;;;;3.05;0.50;;;;;;;25.05;100.00;99334.53;7390318;19;20016;-57
2022/10/27 09:45:19;;;;;;;4.53;0.70;;;;;;;25.17;100.00;99330.56;7390102;19;20010;-56
2022/10/27 09:47:53;;;;;;;1.50;0.50;;;;;;;25.34;100.00;99336.22;7393102;19;20010;-57
2022/10/27 09:50:23;;;;;;;0.73;0.30;;;;;;;25.45;100.00;99326.41;7390659;19;20400;-57
2022/10/27 09:52:49;;;;;;;2.70;0.63;;;;;;;25.43;100.00;99324.16;7391793;19;20013;-57
2022/10/27 09:55:17;;;;;;;2.92;0.25;;;;;;;25.12;100.00;99325.88;7391131;19;20010;-57
2022/10/27 09:57:46;;;;;;;5.00;0.35;;;;;;;25.06;100.00;99316.84;7393979;19;20019;-57
2022/10/27 10:00:15;;;;;;;0.47;0.25;;;;;;;24.77;100.00;99313.03;7391835;19;20343;-60
2022/10/27 10:03:05;;;;;;;2.88;0.57;;;;;;;24.56;100.00;99326.91;7391367;19;20014;-60
2022/10/27 10:05:35;;;;;;;3.00;0.65;;;;;;;24.38;100.00;99320.47;7391013;19;20010;-56
2022/10/27 10:08:28;;;;;;;0.10;0.00;;;;;;;24.63;100.00;99323.97;7394303;19;20033;-60
2022/10/27 10:11:16;;;;;;;2.90;0.77;;;;;;;24.61;100.00;99325.91;7389691;19;20021;-60
2022/10/27 10:13:55;;;;;;;0.60;0.60;;;;;;;24.42;100.00;99323.63;7390691;19;20435;-56
2022/10/27 10:16:21;;;;;;;4.70;1.17;;;;;;;24.44;100.00;99320.19;7390284;19;20010;-56
2022/10/27 10:19:06;;;;;;;2.38;0.75;;;;;;;24.33;100.00;99327.13;7391262;19;20021;-56
2022/10/27 10:21:54;;;;;;;0.68;0.47;;;;;;;24.33;100.00;99329.22;7388367;19;20115;-56
2022/10/27 10:24:24;;;;;;;1.98;0.55;;;;;;;24.47;100.00;99316.19;7388982;19;20006;-56
2022/10/27 10:26:56;;;;;;;2.97;1.25;;;;;;;24.46;100.00;99314.69;7392159;19;20011;-56
2022/10/27 10:29:30;;;;;;;2.05;0.70;;;;;;;24.48;100.00;99317.69;7396042;19;20015;-56
2022/10/27 10:32:24;;;;;;;8.23;2.47;;;;;;;24.58;100.00;99310.00;7390068;19;20015;-55
2022/10/27 10:34:53;;;;;;;2.00;0.80;;;;;;;24.57;100.00;99322.72;7389707;19;20014;-56
2022/10/27 10:37:33;;;;;;;4.82;2.28;;;;;;;24.63;100.00;99317.53;7391164;19;20014;-55
2022/10/27 10:40:10;;;;;;;3.28;0.82;;;;;;;24.54;100.00;99315.34;7390602;19;20015;-56
2022/10/27 10:42:36;;;;;;;6.75;1.60;;;;;;;24.66;100.00;99322.81;7388298;19;20384;-55
2022/10/27 10:45:26;;;;;;;11.50;1.23;;;;;;;24.42;100.00;99325.72;7389420;19;20099;-55
2022/10/27 10:48:03;;;;;;;13.03;1.23;;;;;;;24.49;100.00;99324.91;7392586;19;20011;-55
2022/10/27 10:50:41;;;;;;;3.25;1.08;;;;;;;24.33;100.00;99318.59;7390740;19;20011;-56
2022/10/27 10:53:28;;;;;;;14.85;2.25;;;;;;;24.45;100.00;99327.41;7389665;19;20357;-55
2022/10/27 10:55:57;;;;;;;4.60;0.63;;;;;;;24.47;100.00;99322.63;7389103;19;20011;-55
2022/10/27 10:58:26;;;;;;;3.90;0.80;;;;;;;24.42;100.00;99322.88;7392668;19;20002;-56
2022/10/27 11:00:58;;;;;;;4.13;0.65;;;;;;;24.19;100.00;99319.50;7391056;19;20013;-56
2022/10/27 11:03:28;;;;;;;1.67;0.55;;;;;;;24.16;100.00;99320.66;7395064;19;20018;-56
2022/10/27 11:05:58;;;;;;;2.00;0.63;;;;;;;24.30;100.00;99316.19;7396516;19;20017;-59
2022/10/27 11:08:37;;;;;;;3.55;0.63;;;;;;;24.35;100.00;99315.16;7398767;19;20038;-59
2022/10/27 11:11:10;;;;;;;4.03;1.27;;;;;;;24.52;100.00;99300.94;7395757;19;20018;-56
2022/10/27 11:13:57;;;;;;;6.68;0.82;;;;;;;24.45;100.00;99307.47;7396111;19;20042;-58
2022/10/27 11:16:23;;;;;;;6.45;2.15;;;;;;;24.55;100.00;99308.31;7397463;19;20022;-56
2022/10/27 11:19:05;;;;;;;9.23;2.47;;;;;;;24.91;100.00;99317.03;7391873;19;20022;-56
2022/10/27 11:21:34;;;;;;;3.00;0.50;;;;;;;24.96;100.00;99316.03;7393409;19;20039;-56
2022/10/27 11:24:21;;;;;;;3.00;1.02;;;;;;;25.21;100.00;99313.78;7393671;19;20019;-56
2022/10/27 11:27:00;;;;;;;8.10;1.20;;;;;;;25.22;100.00;99308.84;7395340;19;20036;-55
2022/10/27 11:29:39;;;;;;;6.15;1.25;;;;;;;25.43;100.00;99307.06;7401064;19;20018;-55
2022/10/27 11:32:25;;;;;;;3.53;1.27;;;;;;;25.22;100.00;99308.84;7396003;19;20027;-55
2022/10/27 11:35:10;;;;;;;1.88;1.35;;;;;;;25.23;100.00;99311.09;7395767;19;20015;-56
2022/10/27 11:37:49;;;;;;;2.10;1.33;;;;;;;25.09;100.00;99321.38;7394363;19;20031;-55
2022/10/27 11:40:32;;;;;;;3.05;0.43;;;;;;;25.02;100.00;99319.38;7393927;19;20082;-55